Terminal Aerodrome Forecast
Issued by NWS Austin/San Antonio, TX

Home | Current Version | Previous Version | Text Only | Print | Product List | Glossary On
Versions: 1 2 3 4 5 6 7 8 9 10 11 12 13 14 15 16 17 18 19 20 21 22 23 24 25 26 27 28
000
FTUS44 KEWX 271140
TAFAUS
TAF
KAUS 271140Z 2712/2818 05005KT P6SM BKN015
     FM271700 16012KT P6SM BKN040
     FM280700 16005KT 4SM BR OVC015
     FM281000 16005KT 4SM BR OVC008
     FM281500 16010KT P6SM OVC025=

USA.gov is the U.S. government's official web portal to all federal, state and local government web resources and services.